createdAt,value
2019-01-09T00:00:33.274Z,94.50
2019-01-09T00:03:07.587Z,94.90
2019-01-09T00:05:41.535Z,95.30
2019-01-09T00:08:15.582Z,95.40
2019-01-09T00:10:50.087Z,95.60
2019-01-09T00:13:30.072Z,95.60
2019-01-09T00:16:03.979Z,95.80
2019-01-09T00:18:38.325Z,95.80
2019-01-09T00:21:12.421Z,96.00
2019-01-09T00:23:46.822Z,96.20
2019-01-09T00:26:20.838Z,96.40
2019-01-09T00:28:54.960Z,96.70
2019-01-09T00:31:28.825Z,96.70
2019-01-09T00:34:02.508Z,96.80
2019-01-09T00:36:36.668Z,96.90
2019-01-09T00:39:11.195Z,97.00
2019-01-09T00:41:44.952Z,97.00
2019-01-09T00:44:18.946Z,97.20
2019-01-09T00:46:52.959Z,97.30
2019-01-09T00:49:27.383Z,97.50
2019-01-09T00:52:01.328Z,97.40
2019-01-09T00:54:35.200Z,97.60
2019-01-09T00:57:08.927Z,97.80
2019-01-09T00:59:42.920Z,97.70
2019-01-09T01:02:44.651Z,97.90
2019-01-09T01:06:07.522Z,98.00
2019-01-09T01:09:48.330Z,98.10
2019-01-09T01:12:59.803Z,98.10
2019-01-09T01:16:11.988Z,98.20
2019-01-09T01:19:19.427Z,98.10
2019-01-09T01:22:09.282Z,98.20
2019-01-09T01:25:09.370Z,98.30
2019-01-09T01:28:13.647Z,98.40
2019-01-09T01:31:27.084Z,98.30
2019-01-09T01:34:24.710Z,98.40
2019-01-09T01:37:34.066Z,98.40
2019-01-09T01:40:19.085Z,98.50
2019-01-09T01:43:38.116Z,98.50
2019-01-09T01:46:47.380Z,98.60
2019-01-09T01:49:55.686Z,98.80
2019-01-09T01:53:16.099Z,98.90
2019-01-09T01:56:35.288Z,99.00
2019-01-09T01:59:25.510Z,99.20
2019-01-09T02:02:57.042Z,99.30
2019-01-09T02:06:20.375Z,99.40
2019-01-09T02:09:19.296Z,99.70
2019-01-09T02:12:10.556Z,99.90
2019-01-09T02:15:08.339Z,99.90
2019-01-09T02:18:01.111Z,99.90
2019-01-09T02:21:14.423Z,99.90
2019-01-09T02:24:14.918Z,99.90
2019-01-09T02:27:04.523Z,99.90
2019-01-09T02:30:38.902Z,99.90
2019-01-09T02:33:32.683Z,99.90
2019-01-09T02:36:23.943Z,99.90
2019-01-09T02:39:11.255Z,99.90
2019-01-09T02:42:00.299Z,99.90
2019-01-09T02:44:56.590Z,99.90
2019-01-09T02:47:48.777Z,99.90
2019-01-09T02:50:31.865Z,99.90
2019-01-09T02:53:05.677Z,99.90
2019-01-09T02:55:39.819Z,99.90
2019-01-09T02:58:13.393Z,99.90
2019-01-09T03:00:47.232Z,99.90
2019-01-09T03:03:20.856Z,99.90
2019-01-09T03:05:54.843Z,99.90
2019-01-09T03:08:28.569Z,99.90
2019-01-09T03:11:02.280Z,99.90
2019-01-09T03:13:36.355Z,99.90
2019-01-09T03:16:10.277Z,99.90
2019-01-09T03:18:43.965Z,99.90
2019-01-09T03:21:17.923Z,99.90
2019-01-09T03:23:52.011Z,99.90
2019-01-09T03:26:25.455Z,99.90
2019-01-09T03:29:01.097Z,99.90
2019-01-09T03:31:46.346Z,99.90
2019-01-09T03:34:32.221Z,99.90
2019-01-09T03:37:08.131Z,99.90
2019-01-09T03:39:43.951Z,99.90
2019-01-09T03:42:19.571Z,99.90
2019-01-09T03:44:59.604Z,99.90
2019-01-09T03:47:49.416Z,99.90
2019-01-09T03:50:50.360Z,99.90
2019-01-09T03:53:33.233Z,99.90
2019-01-09T03:59:22.920Z,99.90
2019-01-09T04:02:02.607Z,99.90
2019-01-09T04:04:36.447Z,99.90
2019-01-09T04:07:10.210Z,99.90
2019-01-09T04:09:44.221Z,99.90
2019-01-09T04:12:18.275Z,99.90
2019-01-09T04:14:52.172Z,99.90
2019-01-09T04:17:25.943Z,99.90
2019-01-09T04:19:59.934Z,99.90
2019-01-09T04:22:33.740Z,99.90
2019-01-09T04:25:07.836Z,99.90
2019-01-09T04:27:41.511Z,99.90
2019-01-09T04:30:15.671Z,99.90
2019-01-09T04:32:49.578Z,99.90
2019-01-09T04:35:23.767Z,99.90
2019-01-09T04:37:57.447Z,99.90
2019-01-09T04:40:31.221Z,99.90
2019-01-09T04:43:05.073Z,99.90
2019-01-09T04:45:39.400Z,99.90
2019-01-09T04:48:13.330Z,99.90
2019-01-09T04:50:47.251Z,99.90
2019-01-09T04:53:21.297Z,99.90
2019-01-09T04:55:55.483Z,99.90
2019-01-09T04:58:29.203Z,99.90
2019-01-09T05:01:02.941Z,99.90
2019-01-09T05:03:37.071Z,99.90
2019-01-09T05:06:10.934Z,99.90
2019-01-09T05:08:44.527Z,99.90
2019-01-09T05:11:18.990Z,99.90
2019-01-09T05:13:52.663Z,99.90
2019-01-09T05:16:28.776Z,99.90
2019-01-09T05:19:02.787Z,99.90
2019-01-09T05:21:36.530Z,99.90
2019-01-09T05:24:09.945Z,99.90
2019-01-09T05:26:44.055Z,99.90
2019-01-09T05:29:17.995Z,99.90
2019-01-09T05:31:51.808Z,99.90
2019-01-09T05:34:25.827Z,99.90
2019-01-09T05:36:59.542Z,99.90
2019-01-09T05:39:39.669Z,99.90
2019-01-09T05:42:08.663Z,99.90
2019-01-09T05:44:42.250Z,99.90
2019-01-09T05:47:16.158Z,99.90
2019-01-09T05:49:50.070Z,99.90
2019-01-09T05:52:23.762Z,99.90
2019-01-09T05:54:57.836Z,99.90
2019-01-09T05:57:31.954Z,99.90
2019-01-09T06:00:05.786Z,99.90
2019-01-09T06:02:39.442Z,99.90
2019-01-09T06:05:13.136Z,99.90
2019-01-09T06:07:50.736Z,99.90
2019-01-09T06:10:24.403Z,99.90
2019-01-09T06:12:58.402Z,99.90
2019-01-09T06:15:32.763Z,99.90
2019-01-09T06:18:07.802Z,99.90
2019-01-09T06:20:41.599Z,99.90
2019-01-09T06:23:15.085Z,99.90
2019-01-09T06:25:49.058Z,99.90
2019-01-09T06:28:22.936Z,99.90
2019-01-09T06:30:56.583Z,99.90
2019-01-09T06:33:30.235Z,99.90
2019-01-09T06:36:04.070Z,99.90
2019-01-09T06:38:38.171Z,99.90
2019-01-09T06:41:12.832Z,99.90
2019-01-09T06:43:46.591Z,99.90
2019-01-09T06:46:20.292Z,99.90
2019-01-09T06:48:54.395Z,99.90
2019-01-09T06:51:28.115Z,99.90
2019-01-09T06:54:02.189Z,99.90
2019-01-09T06:56:36.306Z,99.90
2019-01-09T06:59:10.201Z,99.90
2019-01-09T07:01:43.844Z,99.90
2019-01-09T07:04:17.979Z,99.90
2019-01-09T07:06:51.632Z,99.90
2019-01-09T07:09:25.252Z,99.90
2019-01-09T07:11:59.319Z,99.90
2019-01-09T07:14:33.429Z,99.90
2019-01-09T07:17:07.664Z,99.90
2019-01-09T07:19:42.112Z,99.90
2019-01-09T07:22:15.807Z,99.90
2019-01-09T07:24:49.652Z,99.90
2019-01-09T07:27:23.852Z,99.90
2019-01-09T07:29:57.800Z,99.90
2019-01-09T07:32:31.703Z,99.90
2019-01-09T07:35:05.280Z,99.90
2019-01-09T07:37:44.987Z,99.90
2019-01-09T07:40:14.334Z,99.90
2019-01-09T07:42:48.480Z,99.90
2019-01-09T07:45:22.051Z,99.90
2019-01-09T07:47:55.979Z,99.90
2019-01-09T07:50:29.969Z,99.90
2019-01-09T07:53:04.040Z,99.90
2019-01-09T07:55:37.789Z,99.90
2019-01-09T07:58:12.019Z,99.90
2019-01-09T08:00:45.579Z,99.90
2019-01-09T08:03:18.991Z,99.90
2019-01-09T08:05:52.817Z,99.90
2019-01-09T08:08:26.658Z,99.90
2019-01-09T08:11:00.652Z,99.90
2019-01-09T08:13:34.572Z,99.90
2019-01-09T08:16:08.550Z,99.90
2019-01-09T08:18:42.581Z,99.90
2019-01-09T08:21:16.577Z,99.90
2019-01-09T08:23:50.604Z,99.90
2019-01-09T08:26:24.471Z,99.90
2019-01-09T08:28:58.118Z,99.90
2019-01-09T08:31:33.649Z,99.90
2019-01-09T08:34:07.056Z,99.90
2019-01-09T08:36:40.800Z,99.90
2019-01-09T08:39:14.654Z,99.90
2019-01-09T08:41:48.597Z,99.90
2019-01-09T08:44:22.728Z,99.90
2019-01-09T08:46:56.679Z,99.90
2019-01-09T08:49:30.540Z,99.90
2019-01-09T08:52:04.408Z,99.90
2019-01-09T08:54:38.160Z,99.90
2019-01-09T08:57:11.822Z,99.90
2019-01-09T08:59:45.617Z,99.90
2019-01-09T09:02:19.347Z,99.90
2019-01-09T09:04:53.277Z,99.90
2019-01-09T09:07:27.938Z,99.90
2019-01-09T09:10:01.652Z,99.90
2019-01-09T09:12:35.473Z,99.90
2019-01-09T09:15:10.882Z,99.90
2019-01-09T09:17:44.951Z,99.90
2019-01-09T09:20:19.306Z,99.90
2019-01-09T09:22:53.079Z,99.90
2019-01-09T09:25:27.212Z,99.90
2019-01-09T09:28:01.403Z,99.90
2019-01-09T09:30:35.230Z,99.90
2019-01-09T09:33:09.338Z,99.90
2019-01-09T09:35:43.475Z,99.90
2019-01-09T09:38:20.679Z,99.90
2019-01-09T09:40:52.359Z,99.90
2019-01-09T09:43:26.081Z,99.90
2019-01-09T09:46:00.528Z,99.90
2019-01-09T09:48:34.385Z,99.90
2019-01-09T09:51:08.128Z,99.90
2019-01-09T09:53:41.878Z,99.90
2019-01-09T09:56:15.763Z,99.90
2019-01-09T09:58:49.725Z,99.90
2019-01-09T10:01:23.691Z,99.90
2019-01-09T10:03:57.639Z,99.90
2019-01-09T10:06:31.479Z,99.90
2019-01-09T10:09:05.064Z,99.90
2019-01-09T10:11:39.094Z,99.90
2019-01-09T10:14:12.867Z,99.90
2019-01-09T10:16:46.731Z,99.90
2019-01-09T10:19:20.683Z,99.90
2019-01-09T10:21:54.625Z,99.90
2019-01-09T10:24:28.506Z,99.90
2019-01-09T10:27:02.419Z,99.90
2019-01-09T10:29:36.123Z,99.90
2019-01-09T10:32:09.843Z,99.90
2019-01-09T10:34:43.660Z,99.90
2019-01-09T10:37:17.399Z,99.90
2019-01-09T10:39:51.499Z,99.90
2019-01-09T10:42:25.476Z,99.90
2019-01-09T10:44:59.400Z,99.90
2019-01-09T10:47:33.834Z,99.90
2019-01-09T10:50:07.785Z,99.90
2019-01-09T10:52:41.327Z,99.90
2019-01-09T10:55:15.677Z,99.90
2019-01-09T10:57:49.658Z,99.90
2019-01-09T11:00:25.729Z,99.90
2019-01-09T11:02:59.447Z,99.90
2019-01-09T11:05:33.151Z,99.90
2019-01-09T11:08:07.138Z,99.90
2019-01-09T11:10:41.051Z,99.90
2019-01-09T11:13:15.008Z,99.90
2019-01-09T11:15:48.699Z,99.90
2019-01-09T11:18:22.599Z,99.90
2019-01-09T11:20:56.344Z,99.90
2019-01-09T11:23:30.181Z,99.90
2019-01-09T11:26:04.249Z,99.90
2019-01-09T11:28:38.505Z,99.90
2019-01-09T11:31:12.605Z,99.90
2019-01-09T11:33:46.489Z,99.90
2019-01-09T11:36:20.273Z,99.90
2019-01-09T11:38:55.971Z,99.90
2019-01-09T11:41:30.280Z,99.90
2019-01-09T11:44:04.325Z,99.90
2019-01-09T11:46:38.344Z,99.90
2019-01-09T11:49:12.094Z,99.90
2019-01-09T11:51:45.926Z,99.90
2019-01-09T11:54:19.369Z,99.90
2019-01-09T11:56:52.677Z,99.90
2019-01-09T11:59:26.504Z,99.90
2019-01-09T12:01:59.840Z,99.90
2019-01-09T12:04:33.628Z,99.90
2019-01-09T12:07:07.568Z,99.90
2019-01-09T12:09:41.479Z,99.90
2019-01-09T12:12:15.455Z,99.90
2019-01-09T12:14:49.529Z,99.90
2019-01-09T12:17:23.400Z,99.90
2019-01-09T12:19:57.471Z,99.90
2019-01-09T12:22:30.925Z,99.90
2019-01-09T12:25:13.074Z,99.90
2019-01-09T12:27:46.908Z,99.90
2019-01-09T12:30:28.317Z,99.90
2019-01-09T12:33:02.152Z,99.90
2019-01-09T12:35:44.773Z,99.90
2019-01-09T12:38:18.195Z,99.90
2019-01-09T12:40:51.552Z,99.90
2019-01-09T12:43:25.023Z,99.90
2019-01-09T12:45:58.894Z,99.90
2019-01-09T12:48:32.342Z,99.90
2019-01-09T12:51:06.391Z,99.90
2019-01-09T12:53:40.355Z,99.90
2019-01-09T12:56:14.404Z,99.90
2019-01-09T12:58:47.741Z,99.90
2019-01-09T13:01:21.224Z,99.90
2019-01-09T13:03:55.175Z,99.90
2019-01-09T13:06:29.628Z,99.90
2019-01-09T13:09:02.965Z,99.90
2019-01-09T13:11:36.810Z,99.90
2019-01-09T13:14:11.687Z,99.90
2019-01-09T13:16:47.894Z,99.90
2019-01-09T13:19:20.458Z,99.90
2019-01-09T13:21:53.823Z,99.90
2019-01-09T13:24:27.720Z,99.90
2019-01-09T13:27:02.063Z,99.90
2019-01-09T13:29:35.861Z,99.90
2019-01-09T13:32:09.361Z,99.90
2019-01-09T13:34:43.450Z,99.90
2019-01-09T13:37:17.869Z,99.90
2019-01-09T13:39:51.739Z,99.90
2019-01-09T13:42:25.333Z,99.90
2019-01-09T13:45:00.388Z,99.90
2019-01-09T13:47:35.516Z,99.90
2019-01-09T13:50:09.539Z,99.90
2019-01-09T13:53:05.632Z,99.90
2019-01-09T13:55:39.365Z,99.90
2019-01-09T13:58:14.611Z,99.90
2019-01-09T14:00:53.614Z,99.90
2019-01-09T14:03:27.770Z,99.90
2019-01-09T14:06:01.476Z,99.90
2019-01-09T14:08:35.062Z,99.90
2019-01-09T14:11:09.127Z,99.90
2019-01-09T14:13:46.977Z,99.90
2019-01-09T14:16:21.094Z,99.90
2019-01-09T14:18:59.307Z,99.90
2019-01-09T14:21:32.752Z,99.90
2019-01-09T14:24:07.875Z,99.90
2019-01-09T14:26:42.638Z,99.90
2019-01-09T14:29:16.856Z,99.90
2019-01-09T14:31:51.645Z,99.90
2019-01-09T14:34:27.205Z,99.90
2019-01-09T14:37:06.495Z,99.60
2019-01-09T14:39:47.980Z,99.00
2019-01-09T14:42:19.592Z,99.20
2019-01-09T14:44:55.133Z,99.30
2019-01-09T14:47:28.691Z,99.00
2019-01-09T14:50:02.551Z,99.30
2019-01-09T14:52:35.986Z,99.30
2019-01-09T14:55:11.589Z,99.40
2019-01-09T14:57:44.974Z,98.90
2019-01-09T15:00:21.012Z,98.80
2019-01-09T15:02:54.408Z,98.70
2019-01-09T15:05:30.146Z,99.10
2019-01-09T15:08:03.542Z,99.10
2019-01-09T15:10:38.479Z,99.00
2019-01-09T15:13:11.891Z,98.80
2019-01-09T15:15:46.934Z,98.90
2019-01-09T15:18:20.305Z,98.60
2019-01-09T15:20:53.783Z,98.40
2019-01-09T15:23:28.075Z,98.10
2019-01-09T15:26:04.720Z,98.20
2019-01-09T15:28:38.167Z,98.20
2019-01-09T15:31:15.212Z,97.80
2019-01-09T15:33:49.508Z,96.90
2019-01-09T15:36:30.310Z,96.10
2019-01-09T15:39:03.802Z,96.20
2019-01-09T15:41:39.821Z,96.30
2019-01-09T15:44:13.964Z,96.50
2019-01-09T15:46:47.536Z,96.30
2019-01-09T15:49:20.995Z,96.10
2019-01-09T15:51:54.870Z,96.50
2019-01-09T15:54:28.253Z,96.60
2019-01-09T15:57:02.046Z,96.60
2019-01-09T15:59:38.357Z,96.40
2019-01-09T16:02:11.770Z,96.50
2019-01-09T16:04:46.341Z,96.50
2019-01-09T16:07:21.273Z,96.40
2019-01-09T16:09:54.766Z,96.30
2019-01-09T16:12:28.288Z,95.90
2019-01-09T16:15:02.232Z,95.40
2019-01-09T16:17:36.808Z,94.90
2019-01-09T16:20:16.947Z,94.90
2019-01-09T16:22:47.060Z,95.10
2019-01-09T16:25:20.328Z,95.20
2019-01-09T16:27:53.770Z,95.50
2019-01-09T16:30:36.757Z,94.70
2019-01-09T16:33:11.959Z,94.80
2019-01-09T16:35:46.220Z,94.70
2019-01-09T16:38:20.417Z,94.40
2019-01-09T16:40:56.598Z,94.00
2019-01-09T16:43:29.980Z,94.50
2019-01-09T16:46:03.579Z,94.40
2019-01-09T16:48:40.381Z,94.30
2019-01-09T16:51:13.739Z,94.20
2019-01-09T16:53:48.151Z,94.40
2019-01-09T16:56:22.031Z,94.20
2019-01-09T16:58:56.784Z,94.40
2019-01-09T17:01:30.754Z,94.50
2019-01-09T17:04:04.346Z,94.60
2019-01-09T17:06:38.450Z,94.80
2019-01-09T17:09:35.577Z,94.40
2019-01-09T17:12:08.944Z,93.90
2019-01-09T17:14:42.620Z,94.10
2019-01-09T17:17:16.107Z,94.30
2019-01-09T17:19:49.706Z,94.30
2019-01-09T17:22:23.172Z,94.30
2019-01-09T17:24:56.588Z,94.80
2019-01-09T17:27:33.011Z,94.90
2019-01-09T17:30:08.262Z,94.10
2019-01-09T17:32:42.108Z,94.20
2019-01-09T17:35:16.959Z,94.10
2019-01-09T17:37:50.829Z,94.10
2019-01-09T17:40:24.786Z,94.20
2019-01-09T17:43:01.104Z,93.80
2019-01-09T17:45:35.973Z,93.70
2019-01-09T17:48:09.851Z,93.90
2019-01-09T17:50:46.365Z,93.70
2019-01-09T17:53:20.133Z,93.60
2019-01-09T17:56:14.030Z,93.60
2019-01-09T17:58:47.585Z,93.40
2019-01-09T18:01:21.167Z,92.80
2019-01-09T18:04:21.646Z,93.00
2019-01-09T18:07:19.320Z,93.30
2019-01-09T18:09:53.840Z,93.00
2019-01-09T18:12:28.754Z,92.60
2019-01-09T18:15:02.121Z,92.30
2019-01-09T18:17:37.354Z,92.80
2019-01-09T18:20:12.779Z,92.70
2019-01-09T18:22:46.442Z,92.40
2019-01-09T18:25:25.091Z,92.00
2019-01-09T18:28:00.614Z,92.00
2019-01-09T18:30:43.690Z,91.50
2019-01-09T18:33:31.309Z,91.40
2019-01-09T18:36:45.309Z,91.00
2019-01-09T18:40:08.466Z,90.30
2019-01-09T18:43:29.489Z,90.10
2019-01-09T18:46:20.612Z,90.50
2019-01-09T18:49:39.249Z,90.90
2019-01-09T18:53:09.187Z,91.50
2019-01-09T18:55:43.255Z,91.20
2019-01-09T18:58:18.911Z,90.90
2019-01-09T19:00:52.432Z,90.90
2019-01-09T19:03:27.786Z,91.10
2019-01-09T19:06:01.643Z,91.10
2019-01-09T19:08:36.154Z,90.70
2019-01-09T19:11:09.597Z,90.70
2019-01-09T19:13:43.875Z,90.50
2019-01-09T19:16:22.164Z,90.30
2019-01-09T19:18:55.607Z,90.20
2019-01-09T19:21:28.985Z,90.10
2019-01-09T19:24:02.985Z,90.50
2019-01-09T19:26:36.914Z,90.40
2019-01-09T19:29:13.090Z,90.90
2019-01-09T19:31:46.518Z,91.00
2019-01-09T19:34:19.993Z,90.80
2019-01-09T19:36:55.772Z,91.10
2019-01-09T19:39:29.220Z,90.90
2019-01-09T19:42:03.291Z,91.30
2019-01-09T19:44:37.791Z,91.30
2019-01-09T19:47:11.058Z,91.50
2019-01-09T19:49:46.573Z,91.40
2019-01-09T19:52:19.883Z,91.40
2019-01-09T19:54:56.931Z,91.50
2019-01-09T19:57:30.139Z,90.40
2019-01-09T20:00:03.489Z,90.10
2019-01-09T20:02:36.954Z,90.70
2019-01-09T20:05:10.425Z,90.90
2019-01-09T20:07:43.779Z,91.30
2019-01-09T20:10:19.824Z,91.70
2019-01-09T20:12:53.378Z,91.80
2019-01-09T20:15:28.406Z,92.00
2019-01-09T20:18:01.689Z,92.20
2019-01-09T20:20:36.205Z,91.70
2019-01-09T20:23:10.221Z,90.90
2019-01-09T20:25:45.097Z,89.00
2019-01-09T20:28:19.783Z,85.00
2019-01-09T20:30:53.450Z,82.90
2019-01-09T20:33:26.847Z,81.60
2019-01-09T20:36:01.722Z,83.40
2019-01-09T20:38:35.466Z,85.40
2019-01-09T20:41:09.524Z,86.90
2019-01-09T20:43:43.003Z,87.70
2019-01-09T20:46:16.383Z,89.40
2019-01-09T20:48:49.805Z,89.40
2019-01-09T20:51:23.232Z,89.80
2019-01-09T20:53:59.865Z,89.10
2019-01-09T20:56:43.012Z,87.60
2019-01-09T20:59:16.389Z,84.50
2019-01-09T21:01:49.896Z,82.70
2019-01-09T21:04:23.414Z,80.80
2019-01-09T21:06:57.716Z,82.30
2019-01-09T21:09:33.801Z,83.50
2019-01-09T21:12:08.795Z,84.10
2019-01-09T21:14:45.119Z,85.70
2019-01-09T21:17:21.396Z,87.30
2019-01-09T21:19:55.194Z,88.60
2019-01-09T21:22:30.714Z,88.50
2019-01-09T21:25:04.811Z,89.40
2019-01-09T21:27:42.219Z,90.00
2019-01-09T21:30:16.080Z,90.30
2019-01-09T21:32:50.531Z,90.90
2019-01-09T21:35:23.914Z,91.00
2019-01-09T21:37:58.822Z,91.00
2019-01-09T21:40:33.299Z,91.20
2019-01-09T21:43:08.367Z,91.40
2019-01-09T21:45:41.747Z,91.30
2019-01-09T21:48:17.453Z,91.50
2019-01-09T21:50:51.398Z,91.70
2019-01-09T21:53:28.400Z,91.40
2019-01-09T21:56:01.756Z,91.10
2019-01-09T21:58:35.914Z,91.40
2019-01-09T22:01:09.425Z,91.80
2019-01-09T22:03:42.815Z,91.80
2019-01-09T22:06:16.196Z,91.80
2019-01-09T22:08:51.334Z,91.90
2019-01-09T22:11:24.829Z,92.10
2019-01-09T22:13:58.371Z,92.20
2019-01-09T22:16:32.016Z,92.40
2019-01-09T22:19:11.854Z,92.90
2019-01-09T22:21:41.571Z,93.10
2019-01-09T22:24:15.184Z,93.50
2019-01-09T22:26:48.432Z,93.30
2019-01-09T22:29:21.959Z,93.50
2019-01-09T22:31:55.512Z,92.60
2019-01-09T22:34:36.372Z,91.90
2019-01-09T22:37:09.812Z,91.50
2019-01-09T22:39:50.232Z,91.10
2019-01-09T22:42:26.274Z,90.90
2019-01-09T22:45:00.873Z,91.10
2019-01-09T22:47:36.671Z,91.00
2019-01-09T22:50:11.472Z,90.50
2019-01-09T22:52:44.759Z,90.20
2019-01-09T22:55:18.068Z,90.00
2019-01-09T22:57:51.473Z,90.30
2019-01-09T23:01:02.067Z,91.00
2019-01-09T23:03:35.698Z,91.80
2019-01-09T23:06:12.195Z,92.80
2019-01-09T23:08:45.419Z,93.20
2019-01-09T23:11:18.817Z,93.90
2019-01-09T23:13:51.979Z,94.90
2019-01-09T23:16:25.346Z,95.60
2019-01-09T23:18:58.705Z,95.60
2019-01-09T23:21:33.190Z,95.40
2019-01-09T23:24:07.227Z,95.50
2019-01-09T23:26:40.998Z,95.60
2019-01-09T23:29:14.358Z,95.70
2019-01-09T23:31:48.330Z,96.20
2019-01-09T23:34:22.334Z,96.40
2019-01-09T23:36:55.770Z,96.40
2019-01-09T23:39:29.643Z,96.80
2019-01-09T23:42:03.070Z,96.70
2019-01-09T23:44:36.723Z,96.90
2019-01-09T23:47:10.130Z,97.30
2019-01-09T23:49:44.024Z,97.60
2019-01-09T23:52:17.491Z,97.70
2019-01-09T23:54:50.878Z,97.80
2019-01-09T23:57:24.387Z,97.90
2019-01-09T23:59:58.587Z,98.10
